createdAt,value
2018-12-13T00:00:45.959Z,47.8
2018-12-13T00:01:47.011Z,47.9
2018-12-13T00:02:49.683Z,47.9
2018-12-13T00:03:51.579Z,48
2018-12-13T00:04:53.472Z,47.9
2018-12-13T00:05:55.098Z,48
2018-12-13T00:06:57.007Z,47.9
2018-12-13T00:07:58.354Z,47.7
2018-12-13T00:09:00.248Z,47.5
2018-12-13T00:10:01.576Z,47.8
2018-12-13T00:11:03.198Z,47.8
2018-12-13T00:12:05.095Z,47.8
2018-12-13T00:13:06.716Z,47.7
2018-12-13T00:14:08.612Z,47.7
2018-12-13T00:15:10.228Z,47.8
2018-12-13T00:16:11.573Z,47.6
2018-12-13T00:17:13.468Z,47.7
2018-12-13T00:18:14.809Z,47.6
2018-12-13T00:19:16.136Z,47.4
2018-12-13T00:20:17.483Z,47.5
2018-12-13T00:21:19.136Z,47.5
2018-12-13T00:22:20.484Z,47.3
2018-12-13T00:23:22.083Z,47.3
2018-12-13T00:24:24.015Z,47.3
2018-12-13T00:25:25.910Z,47.4
2018-12-13T00:26:27.269Z,47.3
2018-12-13T00:27:29.163Z,47.5
2018-12-13T00:28:30.784Z,47.2
2018-12-13T00:29:32.132Z,47.4
2018-12-13T00:30:34.028Z,47.1
2018-12-13T00:31:35.924Z,47.1
2018-12-13T00:32:37.522Z,47.3
2018-12-13T00:33:39.418Z,47.4
2018-12-13T00:34:40.744Z,47.1
2018-12-13T00:35:42.641Z,47.3
2018-12-13T00:36:43.981Z,47.4
2018-12-13T00:37:45.580Z,47.3
2018-12-13T00:38:46.905Z,47.2
2018-12-13T00:39:47.958Z,47.1
2018-12-13T00:40:49.586Z,47.1
2018-12-13T00:41:51.201Z,47.2
2018-12-13T00:42:52.281Z,47.2
2018-12-13T00:43:53.900Z,47.1
2018-12-13T00:44:55.227Z,46.9
2018-12-13T00:45:57.140Z,46.9
2018-12-13T00:46:58.487Z,47
2018-12-13T00:48:00.106Z,46.6
2018-12-13T00:49:01.730Z,46.8
2018-12-13T00:50:03.054Z,46.8
2018-12-13T00:51:04.406Z,46.9
2018-12-13T00:52:05.729Z,46.9
2018-12-13T00:53:07.071Z,46.6
2018-12-13T00:54:08.965Z,46.9
2018-12-13T00:55:10.875Z,47.1
2018-12-13T00:56:12.769Z,46.8
2018-12-13T00:57:14.391Z,47
2018-12-13T00:58:15.716Z,46.6
2018-12-13T00:59:17.345Z,46.7
2018-12-13T01:00:18.686Z,46.9
2018-12-13T01:01:20.581Z,46.7
2018-12-13T01:02:21.905Z,46.7
2018-12-13T01:03:22.677Z,46.8
2018-12-13T01:04:24.007Z,46.8
2018-12-13T01:05:25.629Z,46.7
2018-12-13T01:06:27.231Z,46.8
2018-12-13T01:07:28.843Z,46.9
2018-12-13T01:08:30.729Z,46.7
2018-12-13T01:09:31.795Z,46.9
2018-12-13T01:10:33.136Z,46.8
2018-12-13T01:11:34.798Z,46.7
2018-12-13T01:12:35.863Z,46.9
2018-12-13T01:13:37.238Z,46.8
2018-12-13T01:14:38.839Z,46.6
2018-12-13T01:15:40.438Z,46.9
2018-12-13T01:16:42.335Z,46.8
2018-12-13T01:17:43.679Z,46.7
2018-12-13T01:18:45.086Z,46.9
2018-12-13T01:19:46.703Z,46.8
2018-12-13T01:20:48.324Z,46.8
2018-12-13T01:21:50.219Z,46.6
2018-12-13T01:22:52.112Z,46.7
2018-12-13T01:23:53.453Z,46.7
2018-12-13T01:24:55.077Z,46.9
2018-12-13T01:25:56.420Z,46.8
2018-12-13T01:26:57.745Z,46.9
2018-12-13T01:27:59.366Z,46.6
2018-12-13T01:29:00.706Z,46.8
2018-12-13T01:30:02.303Z,46.7
2018-12-13T01:31:03.927Z,46.7
2018-12-13T01:32:05.524Z,46.9
2018-12-13T01:33:07.124Z,46.9
2018-12-13T01:34:08.468Z,46.6
2018-12-13T01:35:10.108Z,46.6
2018-12-13T01:36:11.693Z,46.6
2018-12-13T01:37:12.743Z,46.8
2018-12-13T01:38:14.633Z,46.9
2018-12-13T01:39:16.526Z,46.8
2018-12-13T01:40:17.850Z,46.7
2018-12-13T01:41:19.742Z,46.6
2018-12-13T01:42:21.636Z,47
2018-12-13T01:43:23.235Z,46.8
2018-12-13T01:44:25.143Z,46.9
2018-12-13T01:45:26.217Z,46.9
2018-12-13T01:46:28.112Z,46.8
2018-12-13T01:47:29.732Z,47
2018-12-13T01:48:31.626Z,46.9
2018-12-13T01:49:32.994Z,47
2018-12-13T01:50:34.897Z,46.9
2018-12-13T01:51:36.220Z,46.9
2018-12-13T01:52:37.816Z,46.8
2018-12-13T01:53:39.418Z,46.8
2018-12-13T01:54:40.758Z,46.8
2018-12-13T01:55:42.357Z,46.8
2018-12-13T01:56:43.951Z,47
2018-12-13T01:57:45.845Z,46.9
2018-12-13T01:58:47.464Z,46.8
2018-12-13T01:59:48.809Z,46.7
2018-12-13T02:00:50.427Z,46.8
2018-12-13T02:01:52.323Z,46.9
2018-12-13T02:02:54.224Z,46.9
2018-12-13T02:03:55.838Z,46.9
2018-12-13T02:04:56.855Z,47
2018-12-13T02:05:58.474Z,46.8
2018-12-13T02:07:00.090Z,47
2018-12-13T02:08:01.714Z,46.8
2018-12-13T02:09:03.618Z,47
2018-12-13T02:10:04.964Z,47
2018-12-13T02:11:06.354Z,47
2018-12-13T02:12:07.975Z,47.2
2018-12-13T02:13:09.597Z,47
2018-12-13T02:14:11.219Z,47.2
2018-12-13T02:15:12.546Z,47.3
2018-12-13T02:16:14.169Z,47.3
2018-12-13T02:17:15.767Z,47.5
2018-12-13T02:18:17.364Z,47.3
2018-12-13T02:19:18.994Z,47.5
2018-12-13T02:20:20.359Z,47.4
2018-12-13T02:21:21.670Z,47.5
2018-12-13T02:22:23.576Z,47.4
2018-12-13T02:23:24.622Z,47.4
2018-12-13T02:24:26.243Z,47.4
2018-12-13T02:25:28.155Z,47.4
2018-12-13T02:26:30.047Z,47.3
2018-12-13T02:27:31.663Z,47.3
2018-12-13T02:28:32.999Z,47.4
2018-12-13T02:29:34.899Z,47.4
2018-12-13T02:30:36.792Z,47.3
2018-12-13T02:31:38.411Z,47.5
2018-12-13T02:32:39.756Z,47.4
2018-12-13T02:33:41.647Z,47.3
2018-12-13T02:34:43.261Z,47.4
2018-12-13T02:35:44.297Z,47.5
2018-12-13T02:36:46.191Z,47.4
2018-12-13T02:37:47.807Z,47.5
2018-12-13T02:38:49.405Z,47.4
2018-12-13T02:39:51.012Z,47.3
2018-12-13T02:40:52.337Z,47.5
2018-12-13T02:41:53.983Z,47.3
2018-12-13T02:42:55.881Z,47.3
2018-12-13T02:43:56.929Z,47.4
2018-12-13T02:44:58.834Z,47.2
2018-12-13T02:46:00.716Z,47.2
2018-12-13T02:47:02.384Z,47.3
2018-12-13T02:48:03.429Z,47.1
2018-12-13T02:49:05.324Z,47
2018-12-13T02:50:06.944Z,46.9
2018-12-13T02:51:08.563Z,46.8
2018-12-13T02:52:09.912Z,46.9
2018-12-13T02:53:11.809Z,46.8
2018-12-13T02:54:13.705Z,46.9
2018-12-13T02:55:15.028Z,46.8
2018-12-13T02:56:16.648Z,46.6
2018-12-13T02:57:18.542Z,46.6
2018-12-13T02:58:20.275Z,46.8
2018-12-13T02:59:22.168Z,46.8
2018-12-13T03:00:23.218Z,46.7
2018-12-13T03:01:24.564Z,46.8
2018-12-13T03:02:25.632Z,46.8
2018-12-13T03:03:27.252Z,46.8
2018-12-13T03:04:28.865Z,47
2018-12-13T03:05:30.218Z,46.8
2018-12-13T03:06:32.085Z,46.8
2018-12-13T03:07:33.696Z,47
2018-12-13T03:08:35.020Z,47
2018-12-13T03:09:36.370Z,47
2018-12-13T03:10:37.714Z,47
2018-12-13T03:11:39.343Z,46.9
2018-12-13T03:12:40.966Z,46.7
2018-12-13T03:13:41.737Z,47
2018-12-13T03:14:43.349Z,47
2018-12-13T03:15:45.247Z,46.9
2018-12-13T03:16:46.587Z,46.7
2018-12-13T03:17:48.208Z,46.8
2018-12-13T03:18:49.532Z,46.9
2018-12-13T03:19:51.427Z,46.7
2018-12-13T03:20:52.755Z,46.9
2018-12-13T03:21:54.409Z,46.9
2018-12-13T03:22:56.337Z,46.9
2018-12-13T03:23:58.243Z,46.6
2018-12-13T03:25:00.125Z,46.7
2018-12-13T03:26:01.725Z,46.8
2018-12-13T03:27:03.068Z,46.9
2018-12-13T03:28:04.960Z,46.9
2018-12-13T03:29:06.322Z,46.8
2018-12-13T03:30:08.156Z,46.8
2018-12-13T03:31:10.115Z,46.8
2018-12-13T03:32:11.754Z,46.7
2018-12-13T03:33:13.656Z,46.7
2018-12-13T03:34:15.297Z,46.8
2018-12-13T03:35:16.343Z,46.6
2018-12-13T03:36:17.688Z,46.8
2018-12-13T03:37:21.382Z,46.9
2018-12-13T03:38:22.708Z,46.8
2018-12-13T03:39:24.604Z,46.9
2018-12-13T03:40:26.229Z,46.8
2018-12-13T03:41:27.275Z,46.8
2018-12-13T03:42:28.904Z,46.9
2018-12-13T03:43:30.529Z,46.6
2018-12-13T03:44:32.148Z,46.8
2018-12-13T03:45:33.481Z,46.6
2018-12-13T03:46:35.375Z,46.7
2018-12-13T03:47:36.447Z,46.8
2018-12-13T03:48:38.343Z,46.8
2018-12-13T03:49:39.964Z,47
2018-12-13T03:50:41.858Z,46.9
2018-12-13T03:51:43.201Z,46.8
2018-12-13T03:52:44.822Z,46.8
2018-12-13T03:53:46.171Z,46.9
2018-12-13T03:54:47.508Z,47
2018-12-13T03:55:49.152Z,46.7
2018-12-13T03:56:51.047Z,46.8
2018-12-13T03:57:52.986Z,46.9
2018-12-13T03:58:54.608Z,46.7
2018-12-13T03:59:56.500Z,46.8
2018-12-13T04:00:58.121Z,46.9
2018-12-13T04:01:59.721Z,46.8
2018-12-13T04:03:01.629Z,46.8
2018-12-13T04:04:03.514Z,46.9
2018-12-13T04:05:04.854Z,46.7
2018-12-13T04:06:06.476Z,46.9
2018-12-13T04:07:08.371Z,46.6
2018-12-13T04:08:09.994Z,46.7
2018-12-13T04:09:11.314Z,46.7
2018-12-13T04:10:12.914Z,46.7
2018-12-13T04:11:14.810Z,46.9
2018-12-13T04:12:16.704Z,46.7
2018-12-13T04:13:18.302Z,46.7
2018-12-13T04:14:19.923Z,46.7
2018-12-13T04:15:21.254Z,46.8
2018-12-13T04:16:22.624Z,46.5
2018-12-13T04:17:24.270Z,46.6
2018-12-13T04:18:26.168Z,46.6
2018-12-13T04:19:27.786Z,46.6
2018-12-13T04:20:28.839Z,46.4
2018-12-13T04:21:30.436Z,46.6
2018-12-13T04:22:32.329Z,46.6
2018-12-13T04:23:34.219Z,46.6
2018-12-13T04:24:36.116Z,46.5
2018-12-13T04:25:38.034Z,46.6
2018-12-13T04:26:39.653Z,46.5
2018-12-13T04:27:41.548Z,46.5
2018-12-13T04:28:43.443Z,46.4
2018-12-13T04:29:45.068Z,46.4
2018-12-13T04:30:46.964Z,46.7
2018-12-13T04:31:48.856Z,46.4
2018-12-13T04:32:50.472Z,46.5
2018-12-13T04:33:52.070Z,46.5
2018-12-13T04:34:53.411Z,46.4
2018-12-13T04:35:55.303Z,46.4
2018-12-13T04:36:57.200Z,46.4
2018-12-13T04:37:59.094Z,46.4
2018-12-13T04:39:00.705Z,46.5
2018-12-13T04:40:02.626Z,46.5
2018-12-13T04:41:03.404Z,46.5
2018-12-13T04:42:05.027Z,46.5
2018-12-13T04:43:06.071Z,46.4
2018-12-13T04:44:07.668Z,46.5
2018-12-13T04:45:09.562Z,46.4
2018-12-13T04:46:11.456Z,46.4
2018-12-13T04:47:13.080Z,46.4
2018-12-13T04:48:14.400Z,46.5
2018-12-13T04:49:15.721Z,46.4
2018-12-13T04:50:17.340Z,46.4
2018-12-13T04:51:19.234Z,46.4
2018-12-13T04:52:20.556Z,46.6
2018-12-13T04:53:22.186Z,46.6
2018-12-13T04:54:23.222Z,46.4
2018-12-13T04:55:24.822Z,46.5
2018-12-13T04:56:26.439Z,46.7
2018-12-13T04:57:28.330Z,46.5
2018-12-13T04:58:30.223Z,46.1
2018-12-13T04:59:32.118Z,46.2
2018-12-13T05:00:33.514Z,46.4
2018-12-13T05:01:34.551Z,46.5
2018-12-13T05:02:36.442Z,46.5
2018-12-13T05:03:38.078Z,46.3
2018-12-13T05:04:39.998Z,46.3
2018-12-13T05:05:41.340Z,46.4
2018-12-13T05:06:43.250Z,46.3
2018-12-13T05:07:44.856Z,46.2
2018-12-13T05:08:46.473Z,46.6
2018-12-13T05:09:48.367Z,46.5
2018-12-13T05:10:49.965Z,46.1
2018-12-13T05:11:51.563Z,46.5
2018-12-13T05:12:53.204Z,46.4
2018-12-13T05:13:54.829Z,46.6
2018-12-13T05:14:56.444Z,46.1
2018-12-13T05:15:58.339Z,46.1
2018-12-13T05:16:59.963Z,46.1
2018-12-13T05:18:01.578Z,46.3
2018-12-13T05:19:03.179Z,46.5
2018-12-13T05:20:04.807Z,46.3
2018-12-13T05:21:06.404Z,46.5
2018-12-13T05:22:08.004Z,46.2
2018-12-13T05:23:09.909Z,46.1
2018-12-13T05:24:11.800Z,46
2018-12-13T05:25:13.708Z,46
2018-12-13T05:26:15.325Z,45.9
2018-12-13T05:27:16.939Z,45.8
2018-12-13T05:28:18.558Z,45.6
2018-12-13T05:29:20.175Z,45.6
2018-12-13T05:30:22.068Z,45.7
2018-12-13T05:31:23.979Z,45.7
2018-12-13T05:32:25.285Z,45.6
2018-12-13T05:33:27.178Z,45.7
2018-12-13T05:34:28.839Z,45.6
2018-12-13T05:35:30.173Z,46.1
2018-12-13T05:36:32.083Z,45.7
2018-12-13T05:37:33.979Z,45.9
2018-12-13T05:38:35.596Z,45.8
2018-12-13T05:39:37.215Z,45.7
2018-12-13T05:40:38.813Z,45.6
2018-12-13T05:41:40.708Z,45.7
2018-12-13T05:42:42.327Z,45.5
2018-12-13T05:43:43.924Z,45.6
2018-12-13T05:44:45.546Z,45.5
2018-12-13T05:45:47.437Z,45.2
2018-12-13T05:46:49.055Z,45.6
2018-12-13T05:47:50.670Z,45.6
2018-12-13T05:48:52.560Z,45.6
2018-12-13T05:49:55.591Z,45.5
2018-12-13T05:50:57.355Z,45.5
2018-12-13T05:51:59.250Z,45.8
2018-12-13T05:53:00.867Z,45.5
2018-12-13T05:54:02.567Z,45.5
2018-12-13T05:55:04.464Z,45.9
2018-12-13T05:56:06.086Z,45.4
2018-12-13T05:57:07.976Z,45.7
2018-12-13T05:58:09.576Z,45.5
2018-12-13T05:59:11.471Z,45.6
2018-12-13T06:00:12.814Z,45.6
2018-12-13T06:01:14.415Z,45.5
2018-12-13T06:02:16.309Z,45.5
2018-12-13T06:03:18.213Z,45.8
2018-12-13T06:04:19.547Z,45.5
2018-12-13T06:05:20.628Z,45.6
2018-12-13T06:06:22.523Z,45.7
2018-12-13T06:07:23.865Z,45.4
2018-12-13T06:08:25.467Z,45.6
2018-12-13T06:09:27.353Z,45.4
2018-12-13T06:10:28.971Z,45.9
2018-12-13T06:11:30.318Z,45.5
2018-12-13T06:12:31.935Z,45.8
2018-12-13T06:13:33.825Z,45.6
2018-12-13T06:14:35.723Z,45.1
2018-12-13T06:15:37.073Z,45.6
2018-12-13T06:16:38.690Z,45.1
2018-12-13T06:17:41.479Z,45.1
2018-12-13T06:18:43.111Z,45.1
2018-12-13T06:19:45.004Z,45.2
2018-12-13T06:20:46.624Z,45
2018-12-13T06:21:47.966Z,45
2018-12-13T06:22:49.291Z,45.1
2018-12-13T06:23:50.918Z,45.2
2018-12-13T06:24:52.807Z,45.1
2018-12-13T06:25:54.426Z,45.1
2018-12-13T06:26:55.747Z,45
2018-12-13T06:27:57.664Z,45.1
2018-12-13T06:28:59.284Z,45.2
2018-12-13T06:30:07.073Z,45.3
2018-12-13T06:31:09.015Z,45.1
2018-12-13T06:32:10.911Z,45.2
2018-12-13T06:33:12.509Z,45.2
2018-12-13T06:34:14.414Z,44.9
2018-12-13T06:35:16.059Z,45.3
2018-12-13T06:36:17.669Z,45.4
2018-12-13T06:37:19.289Z,45.4
2018-12-13T06:38:20.909Z,45
2018-12-13T06:39:22.802Z,45.2
2018-12-13T06:40:24.699Z,45.1
2018-12-13T06:41:26.619Z,44.7
2018-12-13T06:42:28.510Z,44.8
2018-12-13T06:43:30.405Z,44.8
2018-12-13T06:44:32.027Z,44.9
2018-12-13T06:45:33.350Z,44.9
2018-12-13T06:46:34.675Z,44.8
2018-12-13T06:47:36.570Z,44.9
2018-12-13T06:48:38.166Z,44.9
2018-12-13T06:49:39.489Z,44.9
2018-12-13T06:50:41.475Z,44.6
2018-12-13T06:51:43.204Z,44.7
2018-12-13T06:52:44.801Z,44.8
2018-12-13T06:53:46.418Z,44.8
2018-12-13T06:54:48.037Z,44.9
2018-12-13T06:55:49.929Z,44.7
2018-12-13T06:56:51.822Z,44.9
2018-12-13T06:57:53.728Z,44.8
2018-12-13T06:58:55.075Z,44.9
2018-12-13T06:59:56.424Z,44.6
2018-12-13T07:00:57.747Z,45
2018-12-13T07:01:59.370Z,44.8
2018-12-13T07:03:01.264Z,44.1
2018-12-13T07:04:02.886Z,44.6
2018-12-13T07:05:04.338Z,44.6
2018-12-13T07:06:05.959Z,44.6
2018-12-13T07:07:07.852Z,44.9
2018-12-13T07:08:09.466Z,44.7
2018-12-13T07:09:11.363Z,44.8
2018-12-13T07:10:12.962Z,44.7
2018-12-13T07:11:14.283Z,44.9
2018-12-13T07:12:16.178Z,44.9
2018-12-13T07:13:17.508Z,45
2018-12-13T07:14:18.826Z,44.9
2018-12-13T07:15:20.448Z,44.9
2018-12-13T07:16:22.341Z,44.9
2018-12-13T07:17:23.960Z,45
2018-12-13T07:18:25.278Z,44.9
2018-12-13T07:19:26.876Z,44.8
2018-12-13T07:20:28.221Z,44.9
2018-12-13T07:21:29.856Z,44.9
2018-12-13T07:22:31.477Z,44.9
2018-12-13T07:23:33.373Z,45
2018-12-13T07:24:34.419Z,45
2018-12-13T07:25:35.787Z,45.1
2018-12-13T07:26:37.683Z,45
2018-12-13T07:27:39.300Z,45
2018-12-13T07:28:40.922Z,45
2018-12-13T07:29:42.247Z,45
2018-12-13T07:30:43.867Z,44.7
2018-12-13T07:31:44.945Z,44.9
2018-12-13T07:32:46.549Z,44.8
2018-12-13T07:33:47.600Z,45
2018-12-13T07:34:49.218Z,44.9
2018-12-13T07:35:50.853Z,45
2018-12-13T07:36:52.475Z,45
2018-12-13T07:37:54.073Z,44.9
2018-12-13T07:38:55.420Z,45
2018-12-13T07:39:57.018Z,44.8
2018-12-13T07:40:58.344Z,44.9
2018-12-13T07:41:59.687Z,44.7
2018-12-13T07:43:01.015Z,44.7
2018-12-13T07:44:02.638Z,44.8
2018-12-13T07:45:04.238Z,44.7
2018-12-13T07:46:05.862Z,44.8
2018-12-13T07:47:07.757Z,44.8
2018-12-13T07:48:09.649Z,44.9
2018-12-13T07:49:11.540Z,44.5
2018-12-13T07:50:13.172Z,44.4
2018-12-13T07:51:14.484Z,44.6
2018-12-13T07:52:16.103Z,44.4
2018-12-13T07:53:17.709Z,44.3
2018-12-13T07:54:19.051Z,44.5
2018-12-13T07:55:20.942Z,44.7
2018-12-13T07:56:22.269Z,44.2
2018-12-13T07:57:23.642Z,44.6
2018-12-13T07:58:24.893Z,44.7
2018-12-13T07:59:26.788Z,44.4
2018-12-13T08:00:28.463Z,44.5
2018-12-13T08:01:30.357Z,44.5
2018-12-13T08:02:31.680Z,44.4
2018-12-13T08:03:33.571Z,44.7
2018-12-13T08:04:34.920Z,44
2018-12-13T08:05:36.535Z,43.9
2018-12-13T08:06:38.150Z,44
2018-12-13T08:07:40.048Z,44.2
2018-12-13T08:08:41.387Z,44.1
2018-12-13T08:09:43.283Z,44.1
2018-12-13T08:10:44.904Z,43.9
2018-12-13T08:11:46.528Z,44.2
2018-12-13T08:12:48.133Z,44.3
2018-12-13T08:13:49.731Z,44.4
2018-12-13T08:14:51.059Z,44.3
2018-12-13T08:15:52.679Z,44
2018-12-13T08:16:54.281Z,44.1
2018-12-13T08:17:56.175Z,44
2018-12-13T08:18:57.522Z,44.3
2018-12-13T08:19:59.417Z,44
2018-12-13T08:21:01.310Z,44.1
2018-12-13T08:22:02.905Z,44.3
2018-12-13T08:23:03.959Z,44.1
2018-12-13T08:24:05.572Z,44.2
2018-12-13T08:25:07.463Z,44.1
2018-12-13T08:26:09.082Z,43.8
2018-12-13T08:27:10.705Z,43.9
2018-12-13T08:28:12.301Z,44.1
2018-12-13T08:29:14.196Z,44
2018-12-13T08:30:16.189Z,43.9
2018-12-13T08:31:18.085Z,44.1
2018-12-13T08:32:19.703Z,43.7
2018-12-13T08:33:21.030Z,43.7
2018-12-13T08:34:22.393Z,43.8
2018-12-13T08:35:23.741Z,43.9
2018-12-13T08:36:25.338Z,43.9
2018-12-13T08:37:27.234Z,43.7
2018-12-13T08:38:28.854Z,44.2
2018-12-13T08:39:30.188Z,43.8
2018-12-13T08:40:31.809Z,44
2018-12-13T08:41:33.147Z,44
2018-12-13T08:42:34.764Z,43.7
2018-12-13T08:43:36.661Z,43.6
2018-12-13T08:44:38.593Z,43.9
2018-12-13T08:45:40.489Z,43.6
2018-12-13T08:46:41.812Z,43.9
2018-12-13T08:47:43.428Z,43.7
2018-12-13T08:48:45.322Z,43.8
2018-12-13T08:49:46.943Z,43.9
2018-12-13T08:50:48.591Z,43.6
2018-12-13T08:51:50.499Z,43.4
2018-12-13T08:52:52.133Z,43.5
2018-12-13T08:53:53.752Z,43.8
2018-12-13T08:54:55.710Z,43.4
2018-12-13T08:55:57.603Z,43.4
2018-12-13T08:56:59.206Z,43.3
2018-12-13T08:58:00.822Z,43.1
2018-12-13T08:59:02.754Z,43.6
2018-12-13T09:00:04.489Z,43.9
2018-12-13T09:01:06.456Z,43.7
2018-12-13T09:02:08.074Z,43.6
2018-12-13T09:03:09.694Z,43.6
2018-12-13T09:04:11.334Z,43.4
2018-12-13T09:05:13.229Z,43.7
2018-12-13T09:06:15.122Z,43.5
2018-12-13T09:07:17.021Z,43.4
2018-12-13T09:08:18.084Z,43.4
2018-12-13T09:09:19.712Z,43.1
2018-12-13T09:10:21.045Z,43.3
2018-12-13T09:11:22.670Z,43.3
2018-12-13T09:12:23.997Z,43.3
2018-12-13T09:13:25.893Z,43.2
2018-12-13T09:14:27.492Z,43.1
2018-12-13T09:15:29.387Z,43.1
2018-12-13T09:16:32.180Z,43.1
2018-12-13T09:17:33.800Z,43.2
2018-12-13T09:18:35.151Z,43.2
2018-12-13T09:19:36.528Z,43.2
2018-12-13T09:20:37.946Z,43
2018-12-13T09:21:39.566Z,43.2
2018-12-13T09:22:41.213Z,43.1
2018-12-13T09:23:42.548Z,43.4
2018-12-13T09:24:44.451Z,43.1
2018-12-13T09:25:45.799Z,43
2018-12-13T09:26:47.427Z,43.2
2018-12-13T09:27:49.318Z,43.1
2018-12-13T09:28:50.940Z,43.1
2018-12-13T09:29:51.991Z,42.9
2018-12-13T09:30:53.609Z,42.8
2018-12-13T09:31:55.557Z,43.1
2018-12-13T09:32:56.901Z,43
2018-12-13T09:33:58.557Z,43.1
2018-12-13T09:34:59.942Z,42.9
2018-12-13T09:36:01.540Z,43
2018-12-13T09:37:03.136Z,42.9
2018-12-13T09:38:04.461Z,42.8
2018-12-13T09:39:06.356Z,43.1
2018-12-13T09:40:08.257Z,42.6
2018-12-13T09:41:09.879Z,43
2018-12-13T09:42:10.697Z,43.2
2018-12-13T09:43:12.020Z,43
2018-12-13T09:44:13.913Z,42.8
2018-12-13T09:45:15.810Z,42.6
2018-12-13T09:46:17.704Z,42.4
2018-12-13T09:47:19.325Z,42.5
2018-12-13T09:48:20.968Z,42.4
2018-12-13T09:49:22.611Z,42.6
2018-12-13T09:50:23.952Z,42.5
2018-12-13T09:51:25.573Z,42.6
2018-12-13T09:52:27.004Z,42.8
2018-12-13T09:53:28.731Z,42.7
2018-12-13T09:54:30.348Z,42.5
2018-12-13T09:55:31.693Z,42.6
2018-12-13T09:56:33.325Z,42.6
2018-12-13T09:57:34.940Z,42.7
2018-12-13T09:58:36.280Z,42.5
2018-12-13T09:59:38.175Z,42.5
2018-12-13T10:00:39.795Z,42.5
2018-12-13T10:01:41.693Z,42.5
2018-12-13T10:02:43.035Z,42.6
2018-12-13T10:03:44.632Z,42.6
2018-12-13T10:04:45.982Z,42.6
2018-12-13T10:05:47.587Z,42.5
2018-12-13T10:06:48.912Z,42.5
2018-12-13T10:07:50.594Z,42.5
2018-12-13T10:08:52.216Z,42.5
2018-12-13T10:09:53.817Z,42.4
2018-12-13T10:10:55.168Z,42.7
2018-12-13T10:11:56.785Z,42.6
2018-12-13T10:12:58.730Z,42.5
2018-12-13T10:14:00.076Z,42.5
2018-12-13T10:15:01.701Z,42.6
2018-12-13T10:16:03.592Z,42.6
2018-12-13T10:17:04.663Z,42.6
2018-12-13T10:18:06.006Z,42.7
2018-12-13T10:19:07.351Z,42.8
2018-12-13T10:20:08.969Z,42.6
2018-12-13T10:21:10.862Z,42.5
2018-12-13T10:22:12.316Z,42.3
2018-12-13T10:23:13.636Z,42.4
2018-12-13T10:24:15.254Z,42
2018-12-13T10:25:16.636Z,42.1
2018-12-13T10:26:18.534Z,42.1
2018-12-13T10:27:20.429Z,42.1
2018-12-13T10:28:22.041Z,42
2018-12-13T10:29:23.367Z,42
2018-12-13T10:30:24.984Z,42
2018-12-13T10:31:26.606Z,42.1
2018-12-13T10:32:27.930Z,42.1
2018-12-13T10:33:29.822Z,42.1
2018-12-13T10:34:31.148Z,42.2
2018-12-13T10:35:32.748Z,41.9
2018-12-13T10:36:34.355Z,42.1
2018-12-13T10:37:35.972Z,42.1
2018-12-13T10:38:37.573Z,42.1
2018-12-13T10:39:39.193Z,42.2
2018-12-13T10:40:41.007Z,41.9
2018-12-13T10:41:42.337Z,42.1
2018-12-13T10:42:43.957Z,41.9
2018-12-13T10:43:45.008Z,41.9
2018-12-13T10:44:46.335Z,42
2018-12-13T10:45:47.951Z,42
2018-12-13T10:46:49.550Z,42.1
2018-12-13T10:47:51.227Z,42
2018-12-13T10:48:52.979Z,41.9
2018-12-13T10:49:54.441Z,41.9
2018-12-13T10:50:55.935Z,41.9
2018-12-13T10:51:57.643Z,41.8
2018-12-13T10:52:59.647Z,42
2018-12-13T10:54:01.400Z,41.8
2018-12-13T10:55:02.996Z,42
2018-12-13T10:56:04.895Z,42.1
2018-12-13T10:57:06.241Z,42.1
2018-12-13T10:58:07.589Z,41.9
2018-12-13T10:59:09.206Z,42.1
2018-12-13T11:00:10.583Z,41.9
2018-12-13T11:01:12.481Z,42
2018-12-13T11:02:13.827Z,42.1
2018-12-13T11:03:15.474Z,42
2018-12-13T11:04:17.368Z,42.1
2018-12-13T11:05:19.263Z,42.3
2018-12-13T11:06:20.610Z,41.9
2018-12-13T11:07:22.507Z,41.9
2018-12-13T11:08:24.406Z,41.7
2018-12-13T11:09:26.004Z,41.9
2018-12-13T11:10:27.350Z,42
2018-12-13T11:11:29.248Z,42.1
2018-12-13T11:12:31.143Z,42
2018-12-13T11:13:32.763Z,42
2018-12-13T11:14:34.664Z,42
2018-12-13T11:15:36.291Z,41.9
2018-12-13T11:16:38.186Z,41.9
2018-12-13T11:17:39.510Z,42
2018-12-13T11:18:41.459Z,42
2018-12-13T11:19:43.082Z,41.7
2018-12-13T11:20:44.425Z,41.4
2018-12-13T11:21:45.930Z,41.7
2018-12-13T11:22:47.548Z,41.5
2018-12-13T11:23:49.193Z,41.6
2018-12-13T11:24:50.520Z,41.4
2018-12-13T11:25:52.178Z,41.5
2018-12-13T11:26:54.146Z,41.7
2018-12-13T11:27:55.951Z,41.8
2018-12-13T11:28:57.276Z,41.6
2018-12-13T11:29:58.900Z,41.7
2018-12-13T11:31:00.797Z,41.6
2018-12-13T11:32:02.418Z,41.5
2018-12-13T11:33:04.317Z,42
2018-12-13T11:34:06.216Z,42
2018-12-13T11:35:07.832Z,42
2018-12-13T11:36:09.452Z,41.9
2018-12-13T11:37:11.345Z,41.9
2018-12-13T11:38:13.243Z,42.2
2018-12-13T11:39:14.861Z,42.2
2018-12-13T11:40:16.202Z,42.2
2018-12-13T11:41:18.105Z,42
2018-12-13T11:42:19.703Z,42.1
2018-12-13T11:43:21.037Z,42.2
2018-12-13T11:44:22.406Z,42.4
2018-12-13T11:45:24.300Z,42.5
2018-12-13T11:46:25.904Z,42.5
2018-12-13T11:47:26.960Z,42.4
2018-12-13T11:48:28.575Z,42.1
2018-12-13T11:49:30.481Z,42
2018-12-13T11:50:31.828Z,42.1
2018-12-13T11:51:33.426Z,42.2
2018-12-13T11:52:35.319Z,42.3
2018-12-13T11:53:36.937Z,42.1
2018-12-13T11:54:38.839Z,42.1
2018-12-13T11:55:40.180Z,42
2018-12-13T11:56:42.080Z,42.2
2018-12-13T11:57:43.701Z,41.9
2018-12-13T11:58:46.728Z,42.2
2018-12-13T11:59:48.393Z,42.1
2018-12-13T12:00:49.726Z,41.9
2018-12-13T12:01:51.330Z,42
2018-12-13T12:02:53.243Z,41.8
2018-12-13T12:03:55.140Z,41.7
2018-12-13T12:04:57.087Z,41.7
2018-12-13T12:05:58.983Z,41.6
2018-12-13T12:07:00.581Z,41.1
2018-12-13T12:08:02.204Z,41.3
2018-12-13T12:09:04.099Z,41.4
2018-12-13T12:10:05.994Z,40.8
2018-12-13T12:11:07.643Z,41
2018-12-13T12:12:09.306Z,41.2
2018-12-13T12:13:10.927Z,41.1
2018-12-13T12:14:12.545Z,40.9
2018-12-13T12:15:13.603Z,41.3
2018-12-13T12:16:15.498Z,41
2018-12-13T12:17:17.394Z,41.1
2018-12-13T12:18:18.740Z,41.1
2018-12-13T12:19:20.357Z,42
2018-12-13T12:20:21.980Z,42.6
2018-12-13T12:21:23.580Z,42.6
2018-12-13T12:22:24.904Z,42.8
2018-12-13T12:23:26.799Z,42.6
2018-12-13T12:24:28.132Z,42.9
2018-12-13T12:25:29.747Z,43.3
2018-12-13T12:26:31.372Z,43.4
2018-12-13T12:27:32.782Z,43.2
2018-12-13T12:28:34.668Z,43.3
2018-12-13T12:29:36.267Z,43.1
2018-12-13T12:30:38.161Z,42.7
2018-12-13T12:31:39.797Z,42.5
2018-12-13T12:32:41.163Z,42.9
2018-12-13T12:33:43.057Z,42.9
2018-12-13T12:34:44.677Z,42.7
2018-12-13T12:35:46.572Z,42.9
2018-12-13T12:36:48.190Z,43.2
2018-12-13T12:37:50.082Z,42.8
2018-12-13T12:38:51.430Z,42.8
2018-12-13T12:39:53.050Z,42.5
2018-12-13T12:40:54.944Z,42.4
2018-12-13T12:41:56.561Z,42.1
2018-12-13T12:42:58.465Z,42.1
2018-12-13T12:43:59.784Z,42.2
2018-12-13T12:45:01.678Z,41.9
2018-12-13T12:46:03.296Z,42
2018-12-13T12:47:04.615Z,42
2018-12-13T12:48:05.958Z,42.1
2018-12-13T12:49:07.010Z,42.1
2018-12-13T12:50:08.360Z,42.1
2018-12-13T12:51:09.789Z,41.9
2018-12-13T12:52:10.912Z,42.2
2018-12-13T12:53:12.533Z,42.1
2018-12-13T12:54:14.014Z,42.6
2018-12-13T12:55:15.617Z,42.6
2018-12-13T12:56:17.361Z,43
2018-12-13T12:57:18.981Z,42.8
2018-12-13T12:58:20.324Z,42.7
2018-12-13T12:59:22.249Z,42.6
2018-12-13T13:00:23.860Z,42.7
2018-12-13T13:01:25.529Z,42.6
2018-12-13T13:02:27.127Z,42.1
2018-12-13T13:03:28.474Z,42
2018-12-13T13:04:30.075Z,42.1
2018-12-13T13:05:31.419Z,42.1
2018-12-13T13:06:33.316Z,41.9
2018-12-13T13:07:34.362Z,42.1
2018-12-13T13:08:36.256Z,42.1
2018-12-13T13:09:38.215Z,42
2018-12-13T13:10:39.542Z,41.5
2018-12-13T13:11:41.170Z,41.8
2018-12-13T13:12:42.787Z,41.7
2018-12-13T13:13:43.857Z,41.6
2018-12-13T13:14:45.202Z,41.1
2018-12-13T13:15:46.803Z,41.1
2018-12-13T13:16:48.700Z,41.2
2018-12-13T13:17:50.355Z,41
2018-12-13T13:18:51.979Z,40.8
2018-12-13T13:19:53.301Z,41.1
2018-12-13T13:20:55.201Z,41.3
2018-12-13T13:21:56.558Z,41.3
2018-12-13T13:22:58.180Z,40.9
2018-12-13T13:23:59.794Z,40.9
2018-12-13T13:25:01.140Z,41.1
2018-12-13T13:26:03.036Z,41.1
2018-12-13T13:27:04.360Z,41
2018-12-13T13:28:05.704Z,40.9
2018-12-13T13:29:07.306Z,40.9
2018-12-13T13:30:08.933Z,40.9
2018-12-13T13:31:10.556Z,41.1
2018-12-13T13:32:12.449Z,41.2
2018-12-13T13:33:13.946Z,41
2018-12-13T13:34:15.858Z,41.2
2018-12-13T13:35:17.201Z,40.9
2018-12-13T13:36:18.526Z,41.2
2018-12-13T13:37:20.125Z,40.9
2018-12-13T13:38:22.016Z,41.4
2018-12-13T13:39:23.909Z,41.3
2018-12-13T13:40:25.318Z,41.3
2018-12-13T13:41:26.711Z,41.4
2018-12-13T13:42:28.060Z,41
2018-12-13T13:43:29.958Z,41
2018-12-13T13:44:31.282Z,41
2018-12-13T13:45:32.902Z,41.5
2018-12-13T13:46:34.850Z,41.1